createdAt,value
2023-02-07T00:05:04.015Z,55.33
2023-02-07T00:10:09.839Z,55.40
2023-02-07T00:15:15.196Z,55.71
2023-02-07T00:20:19.709Z,57.01
2023-02-07T00:25:24.351Z,57.33
2023-02-07T00:30:29.693Z,57.62
2023-02-07T00:35:33.728Z,58.38
2023-02-07T00:40:37.616Z,59.34
2023-02-07T00:45:43.575Z,59.45
2023-02-07T00:50:48.453Z,60.83
2023-02-07T00:55:53.353Z,60.14
2023-02-07T01:00:58.915Z,58.63
2023-02-07T01:06:02.952Z,59.09
2023-02-07T01:11:09.984Z,59.37
2023-02-07T01:16:21.833Z,60.44
2023-02-07T01:21:28.020Z,60.28
2023-02-07T01:26:32.396Z,59.61
2023-02-07T01:31:37.854Z,58.94
2023-02-07T01:36:43.224Z,60.93
2023-02-07T01:41:49.521Z,60.35
2023-02-07T01:46:56.438Z,59.34
2023-02-07T01:52:05.728Z,59.33
2023-02-07T01:57:13.776Z,58.22
2023-02-07T02:02:23.518Z,58.19
2023-02-07T02:07:30.288Z,59.45
2023-02-07T02:12:55.667Z,58.14
2023-02-07T02:18:20.125Z,57.99
2023-02-07T02:23:37.413Z,56.56
2023-02-07T02:29:27.423Z,57.42
2023-02-07T02:34:43.932Z,59.44
2023-02-07T02:39:55.868Z,58.85
2023-02-07T02:45:04.550Z,58.76
2023-02-07T02:50:13.169Z,58.72
2023-02-07T02:55:19.205Z,59.22
2023-02-07T03:00:38.369Z,60.08
2023-02-07T03:05:55.794Z,59.36
2023-02-07T03:11:08.631Z,59.63
2023-02-07T03:16:17.112Z,60.50
2023-02-07T03:21:28.345Z,58.66
2023-02-07T03:26:34.846Z,58.63
2023-02-07T03:31:43.398Z,58.10
2023-02-07T03:36:56.537Z,58.32
2023-02-07T03:42:04.869Z,58.35
2023-02-07T03:47:08.956Z,59.42
2023-02-07T03:52:14.734Z,59.42
2023-02-07T03:57:18.824Z,59.60
2023-02-07T04:02:23.097Z,59.63
2023-02-07T04:07:28.734Z,58.92
2023-02-07T04:12:33.791Z,59.51
2023-02-07T04:17:37.769Z,58.76
2023-02-07T04:22:43.108Z,59.56
2023-02-07T04:27:47.105Z,58.96
2023-02-07T04:32:51.077Z,59.58
2023-02-07T04:37:56.996Z,60.17
2023-02-07T04:43:01.184Z,59.94
2023-02-07T04:48:05.607Z,60.89
2023-02-07T04:53:11.062Z,62.15
2023-02-07T04:58:15.034Z,61.58
2023-02-07T05:03:19.104Z,62.38
2023-02-07T05:08:26.168Z,61.83
2023-02-07T05:13:30.378Z,62.58
2023-02-07T05:18:34.934Z,62.32
2023-02-07T05:23:40.870Z,61.98
2023-02-07T05:28:45.119Z,61.30
2023-02-07T05:33:49.089Z,61.93
2023-02-07T05:38:54.477Z,62.47
2023-02-07T05:43:58.451Z,62.52
2023-02-07T05:49:02.497Z,61.73
2023-02-07T05:54:08.161Z,60.27
2023-02-07T05:59:13.933Z,62.73
2023-02-07T06:04:17.965Z,62.71
2023-02-07T06:09:23.670Z,61.31
2023-02-07T06:14:27.677Z,61.99
2023-02-07T06:19:31.685Z,62.75
2023-02-07T06:24:37.269Z,61.50
2023-02-07T06:29:41.257Z,60.57
2023-02-07T06:34:45.404Z,61.23
2023-02-07T06:39:50.990Z,60.36
2023-02-07T06:44:55.107Z,61.03
2023-02-07T06:49:59.149Z,60.05
2023-02-07T06:55:04.938Z,59.31
2023-02-07T07:00:13.533Z,59.22
2023-02-07T07:05:17.983Z,57.13
2023-02-07T07:10:24.288Z,56.71
2023-02-07T07:15:29.405Z,53.43
2023-02-07T07:20:34.174Z,50.68
2023-02-07T07:25:41.871Z,47.57
2023-02-07T07:30:46.034Z,45.26
2023-02-07T07:35:50.335Z,47.63
2023-02-07T07:40:55.831Z,45.45
2023-02-07T07:46:01.928Z,44.91
2023-02-07T07:51:06.334Z,47.42
2023-02-07T07:56:11.870Z,45.14
2023-02-07T08:01:16.520Z,47.88
2023-02-07T08:06:21.244Z,47.62
2023-02-07T08:11:26.946Z,44.16
2023-02-07T08:16:31.541Z,43.53
2023-02-07T08:21:38.002Z,44.76
2023-02-07T08:26:43.875Z,45.44
2023-02-07T08:31:50.017Z,44.39
2023-02-07T08:36:54.571Z,38.90
2023-02-07T08:42:05.589Z,37.50
2023-02-07T08:47:10.420Z,34.11
2023-02-07T08:52:17.976Z,33.27
2023-02-07T08:57:26.124Z,32.68
2023-02-07T09:02:33.485Z,30.21
2023-02-07T09:07:37.605Z,29.93
2023-02-07T09:12:43.777Z,29.46
2023-02-07T09:17:47.989Z,29.64
2023-02-07T09:23:07.184Z,29.24
2023-02-07T09:28:15.211Z,29.52
2023-02-07T09:33:19.807Z,31.67
2023-02-07T09:38:26.494Z,31.52
2023-02-07T09:43:39.237Z,30.95
2023-02-07T09:48:51.522Z,30.54
2023-02-07T09:53:59.568Z,29.80
2023-02-07T09:59:12.433Z,29.78
2023-02-07T10:04:31.151Z,26.63
2023-02-07T10:09:41.804Z,25.42
2023-02-07T10:15:11.304Z,23.58
2023-02-07T10:20:30.337Z,21.78
2023-02-07T10:25:44.021Z,23.11
2023-02-07T10:30:54.093Z,23.96
2023-02-07T10:35:58.745Z,25.63
2023-02-07T10:41:06.779Z,27.13
2023-02-07T10:46:15.883Z,26.58
2023-02-07T10:51:29.025Z,26.69
2023-02-07T10:56:37.428Z,26.26
2023-02-07T11:01:45.696Z,26.94
2023-02-07T11:07:01.599Z,27.66
2023-02-07T11:12:15.587Z,26.29
2023-02-07T11:17:23.619Z,27.15
2023-02-07T11:22:30.438Z,29.26
2023-02-07T11:27:40.972Z,28.64
2023-02-07T11:32:59.595Z,30.50
2023-02-07T11:38:06.565Z,30.21
2023-02-07T11:43:16.874Z,30.69
2023-02-07T11:48:27.283Z,29.56
2023-02-07T11:53:39.022Z,30.59
2023-02-07T11:58:47.618Z,29.77
2023-02-07T12:04:01.630Z,30.95
2023-02-07T12:09:20.579Z,32.11
2023-02-07T12:14:31.393Z,32.18
2023-02-07T12:19:40.924Z,32.40
2023-02-07T12:24:53.189Z,31.71
2023-02-07T12:30:04.306Z,31.02
2023-02-07T12:35:22.733Z,30.92
2023-02-07T12:40:35.477Z,31.42
2023-02-07T12:45:56.646Z,32.42
2023-02-07T12:56:44.156Z,33.00
2023-02-07T13:01:54.485Z,33.40
2023-02-07T13:07:10.816Z,31.94
2023-02-07T13:12:37.440Z,32.56
2023-02-07T13:17:51.550Z,32.39
2023-02-07T13:23:00.925Z,31.65
2023-02-07T13:28:13.804Z,31.89
2023-02-07T13:33:37.544Z,32.64
2023-02-07T13:38:55.572Z,31.67
2023-02-07T13:44:10.237Z,31.62
2023-02-07T13:49:22.902Z,31.84
2023-02-07T13:54:36.410Z,33.49
2023-02-07T13:59:42.955Z,32.90
2023-02-07T14:04:51.189Z,33.18
2023-02-07T14:09:56.996Z,34.38
2023-02-07T14:15:53.012Z,34.35
2023-02-07T14:21:03.901Z,33.07
2023-02-07T14:27:06.865Z,32.54
2023-02-07T14:32:31.937Z,33.41
2023-02-07T14:37:46.597Z,35.53
2023-02-07T14:43:00.041Z,33.91
2023-02-07T14:48:07.571Z,32.90
2023-02-07T14:53:16.955Z,34.21
2023-02-07T14:58:34.256Z,33.65
2023-02-07T15:03:40.193Z,33.05
2023-02-07T15:08:57.605Z,33.35
2023-02-07T15:14:04.331Z,34.72
2023-02-07T15:19:16.130Z,33.84
2023-02-07T15:24:26.185Z,34.76
2023-02-07T15:29:32.734Z,36.45
2023-02-07T15:34:38.440Z,38.26
2023-02-07T15:39:42.700Z,39.45
2023-02-07T15:44:52.792Z,40.45
2023-02-07T15:50:06.614Z,41.81
2023-02-07T15:55:21.262Z,42.15
2023-02-07T16:00:30.075Z,42.81
2023-02-07T16:05:38.698Z,43.46
2023-02-07T16:10:44.338Z,43.87
2023-02-07T16:15:58.412Z,44.26
2023-02-07T16:21:04.272Z,44.12
2023-02-07T16:26:08.312Z,43.68
2023-02-07T16:31:12.484Z,44.43
2023-02-07T16:36:19.983Z,44.74
2023-02-07T16:41:32.052Z,44.16
2023-02-07T16:46:38.785Z,44.07
2023-02-07T16:51:45.338Z,47.36
2023-02-07T16:56:55.100Z,50.40
2023-02-07T17:01:59.286Z,50.58
2023-02-07T17:07:04.900Z,52.06
2023-02-07T17:12:10.366Z,50.48
2023-02-07T17:17:14.696Z,51.38
2023-02-07T17:22:20.063Z,51.75
2023-02-07T17:27:24.029Z,51.17
2023-02-07T17:32:28.365Z,51.34
2023-02-07T17:37:33.759Z,52.35
2023-02-07T17:42:38.411Z,50.00
2023-02-07T17:47:42.495Z,51.02
2023-02-07T17:52:48.487Z,53.24
2023-02-07T17:57:54.408Z,51.87
2023-02-07T18:02:58.582Z,52.56
2023-02-07T18:08:04.352Z,52.48
2023-02-07T18:13:08.603Z,52.53
2023-02-07T18:18:15.439Z,50.84
2023-02-07T18:23:20.775Z,51.51
2023-02-07T18:28:24.975Z,52.96
2023-02-07T18:33:29.359Z,52.45
2023-02-07T18:38:35.102Z,53.22
2023-02-07T18:43:41.503Z,54.34
2023-02-07T18:48:47.293Z,55.43
2023-02-07T18:53:54.930Z,54.90
2023-02-07T18:58:59.220Z,54.16
2023-02-07T19:04:03.470Z,53.86
2023-02-07T19:09:09.408Z,52.94
2023-02-07T19:14:15.693Z,53.75
2023-02-07T19:19:20.634Z,53.95
2023-02-07T19:24:26.742Z,54.98
2023-02-07T19:29:33.373Z,56.00
2023-02-07T19:34:38.960Z,56.02
2023-02-07T19:39:46.305Z,55.86
2023-02-07T19:44:51.524Z,57.68
2023-02-07T19:49:55.533Z,58.70
2023-02-07T19:55:01.050Z,56.14
2023-02-07T20:00:07.215Z,56.88
2023-02-07T20:05:11.513Z,56.57
2023-02-07T20:10:17.213Z,57.77
2023-02-07T20:15:24.677Z,56.75
2023-02-07T20:20:31.474Z,58.88
2023-02-07T20:25:37.836Z,57.44
2023-02-07T20:30:45.711Z,56.29
2023-02-07T20:35:49.973Z,56.83
2023-02-07T20:40:57.899Z,57.16
2023-02-07T20:46:07.061Z,56.13
2023-02-07T20:51:12.096Z,55.86
2023-02-07T20:56:19.942Z,55.62
2023-02-07T21:01:26.400Z,57.96
2023-02-07T21:06:30.824Z,59.13
2023-02-07T21:11:39.449Z,58.32
2023-02-07T21:16:43.553Z,57.86
2023-02-07T21:21:50.828Z,57.80
2023-02-07T21:26:57.543Z,57.24
2023-02-07T21:32:01.781Z,58.34
2023-02-07T21:37:07.200Z,58.61
2023-02-07T21:42:12.726Z,59.76
2023-02-07T21:47:16.809Z,58.38
2023-02-07T21:52:21.052Z,59.43
2023-02-07T21:57:27.570Z,60.81
2023-02-07T22:02:32.292Z,59.07
2023-02-07T22:07:36.456Z,59.43
2023-02-07T22:12:42.396Z,58.27
2023-02-07T22:17:46.697Z,59.34
2023-02-07T22:22:50.825Z,59.32
2023-02-07T22:27:56.451Z,59.30
2023-02-07T22:33:00.571Z,60.44
2023-02-07T22:38:05.285Z,61.38
2023-02-07T22:43:15.248Z,59.78
2023-02-07T22:48:19.369Z,58.63
2023-02-07T22:53:23.408Z,58.49
2023-02-07T22:58:28.799Z,59.54
2023-02-07T23:03:33.195Z,60.08
2023-02-07T23:08:37.582Z,60.49
2023-02-07T23:13:43.109Z,62.88
2023-02-07T23:18:47.332Z,62.85
2023-02-07T23:23:54.904Z,63.05
2023-02-07T23:29:01.849Z,63.36
2023-02-07T23:34:05.988Z,62.20
2023-02-07T23:39:10.436Z,61.88
2023-02-07T23:44:16.432Z,63.13
2023-02-07T23:49:20.724Z,64.58
2023-02-07T23:54:24.727Z,64.84
2023-02-07T23:59:30.223Z,64.83
